Time;durP1;ratioP1;P1;durP2;ratioP2;P2;SDS_P1;SDS_P2;PMS_P1;PMS_P2;Temp;Humidity;BMP_temperature;BMP_pressure;BME280_temperature;BME280_humidity;BME280_pressure;Samples;Min_cycle;Max_cycle;Signal;HPM_P1;HPM_P2
2022/09/02 00:01:44;;;;;;;0.97;0.87;;;;;;;16.26;52.56;99103.66;5096056;28;39965;-75
2022/09/02 00:04:15;;;;;;;2.10;1.10;;;;;;;16.19;52.54;99094.47;5112852;28;42077;-76
2022/09/02 00:06:45;;;;;;;1.20;1.10;;;;;;;16.17;52.69;99104.44;5095899;28;41761;-76
2022/09/02 00:09:15;;;;;;;0.97;0.97;;;;;;;16.14;52.43;99099.31;5112064;28;42347;-75
2022/09/02 00:11:46;;;;;;;1.10;1.00;;;;;;;16.09;52.30;99097.00;5113033;28;40237;-75
2022/09/02 00:14:20;;;;;;;0.90;0.90;;;;;;;16.05;52.53;99098.25;5112768;28;42467;-75
2022/09/02 00:16:50;;;;;;;1.13;1.07;;;;;;;16.03;52.55;99100.19;5112987;28;43337;-75
2022/09/02 00:19:19;;;;;;;0.90;0.90;;;;;;;16.01;52.55;99098.63;5112382;28;44084;-76
2022/09/02 00:21:46;;;;;;;2.20;1.10;;;;;;;15.97;52.55;99098.00;5095822;28;38702;-75
2022/09/02 00:24:14;;;;;;;1.30;1.20;;;;;;;15.93;52.74;99096.56;5113601;28;41518;-75
2022/09/02 00:26:42;;;;;;;1.30;1.00;;;;;;;15.86;52.90;99084.66;5095702;28;42821;-75
2022/09/02 00:29:12;;;;;;;1.30;1.20;;;;;;;15.80;53.33;99066.50;5112445;28;41324;-75
2022/09/02 00:31:42;;;;;;;1.50;1.17;;;;;;;15.88;52.93;99093.41;5112761;28;40256;-76
2022/09/02 00:34:10;;;;;;;1.47;1.10;;;;;;;15.85;53.22;99085.63;5112349;28;43395;-75
2022/09/02 00:36:39;;;;;;;1.10;1.00;;;;;;;15.83;53.23;99084.91;5095579;28;41935;-75
2022/09/02 00:39:08;;;;;;;1.10;1.00;;;;;;;15.79;53.08;99083.47;5111661;28;42004;-76
2022/09/02 00:41:41;;;;;;;0.93;0.87;;;;;;;15.78;53.01;99087.13;5095418;28;39105;-75
2022/09/02 00:44:12;;;;;;;1.33;1.00;;;;;;;15.77;53.29;99086.28;5111736;28;42790;-75
2022/09/02 00:46:41;;;;;;;1.73;1.17;;;;;;;15.74;53.27;99081.16;5112648;28;43256;-75
2022/09/02 00:49:12;;;;;;;1.10;1.00;;;;;;;15.73;53.76;99078.63;5112331;28;42300;-76
2022/09/02 00:51:46;;;;;;;1.27;1.03;;;;;;;15.69;54.02;99067.34;5095579;28;38600;-76
2022/09/02 00:54:16;;;;;;;1.57;0.90;;;;;;;15.71;54.11;99075.22;5095145;28;40776;-76
2022/09/02 00:56:46;;;;;;;1.30;1.20;;;;;;;15.70;54.37;99070.88;5095131;28;43275;-75
2022/09/02 00:59:22;;;;;;;2.17;1.37;;;;;;;15.69;54.94;99071.84;5111378;28;43706;-75
2022/09/02 01:01:51;;;;;;;1.40;1.10;;;;;;;15.68;54.89;99067.47;5087456;28;40818;-76
2022/09/02 01:04:19;;;;;;;1.60;1.40;;;;;;;15.67;55.20;99068.44;5110243;28;41787;-75
2022/09/02 01:06:46;;;;;;;4.07;1.17;;;;;;;15.65;54.76;99071.22;5110194;28;42635;-75
2022/09/02 01:09:16;;;;;;;1.33;1.00;;;;;;;15.63;55.04;99072.31;5093197;28;41303;-76
2022/09/02 01:11:48;;;;;;;1.23;1.13;;;;;;;15.62;55.06;99065.28;5110515;28;39942;-76
2022/09/02 01:14:16;;;;;;;1.50;1.30;;;;;;;15.58;55.51;99066.50;5110556;28;40799;-75
2022/09/02 01:16:48;;;;;;;1.43;1.27;;;;;;;15.56;55.24;99063.13;5111681;28;43276;-75
2022/09/02 01:19:23;;;;;;;1.07;1.07;;;;;;;15.54;55.68;99057.00;5111344;28;42777;-75
2022/09/02 01:21:54;;;;;;;1.47;1.27;;;;;;;15.45;55.42;99058.59;5094872;28;40484;-76
2022/09/02 01:24:26;;;;;;;1.10;1.00;;;;;;;15.49;55.57;99060.03;5112381;28;41854;-75
2022/09/02 01:26:55;;;;;;;1.40;1.30;;;;;;;15.46;55.19;99065.59;5108622;28;42728;-75
2022/09/02 01:29:25;;;;;;;1.20;1.10;;;;;;;15.43;55.10;99072.06;5112674;28;42312;-76
2022/09/02 01:31:53;;;;;;;1.57;1.10;;;;;;;15.39;55.32;99059.91;5111682;28;38516;-75
2022/09/02 01:34:20;;;;;;;1.27;1.17;;;;;;;15.37;55.27;99064.53;5111368;28;41531;-75
2022/09/02 01:36:48;;;;;;;1.07;1.03;;;;;;;15.29;55.18;99061.63;5111708;28;43558;-75
2022/09/02 01:39:17;;;;;;;1.50;1.40;;;;;;;15.31;54.85;99064.16;5093393;28;41140;-75
2022/09/02 01:41:45;;;;;;;2.10;0.80;;;;;;;15.18;55.15;99050.94;5094419;28;39813;-74
2022/09/02 01:44:15;;;;;;;1.83;1.10;;;;;;;15.22;55.05;99065.72;5094092;28;42377;-75
2022/09/02 01:46:43;;;;;;;1.23;0.90;;;;;;;15.19;54.89;99063.31;5094342;28;42862;-75
2022/09/02 01:49:11;;;;;;;1.10;1.00;;;;;;;15.15;55.00;99059.16;5093746;28;40894;-75
2022/09/02 01:51:41;;;;;;;0.80;0.80;;;;;;;15.07;54.76;99053.59;5111361;28;41441;-75
2022/09/02 01:54:09;;;;;;;0.83;0.80;;;;;;;15.06;54.86;99063.41;5093871;28;40604;-75
2022/09/02 01:56:38;;;;;;;1.10;1.00;;;;;;;15.02;54.89;99069.09;5094240;28;41491;-75
2022/09/02 01:59:06;;;;;;;1.17;1.07;;;;;;;14.98;54.86;99065.81;5093704;28;43803;-75
2022/09/02 02:01:35;;;;;;;0.93;0.83;;;;;;;14.82;55.38;99049.31;5094293;28;41157;-76
2022/09/02 02:04:03;;;;;;;1.00;0.90;;;;;;;14.88;55.38;99062.16;5110914;28;41855;-75
2022/09/02 02:06:30;;;;;;;1.03;0.90;;;;;;;14.85;55.73;99062.38;5094043;28;41708;-75
2022/09/02 02:08:58;;;;;;;1.20;1.10;;;;;;;14.82;55.45;99064.44;5093438;28;42036;-77
2022/09/02 02:11:27;;;;;;;1.30;1.20;;;;;;;14.78;55.86;99058.50;5093974;28;39491;-75
2022/09/02 02:14:01;;;;;;;1.10;1.00;;;;;;;14.71;56.09;99052.75;5093718;28;40598;-75
2022/09/02 02:16:29;;;;;;;1.53;1.00;;;;;;;14.73;55.92;99056.16;5110992;28;42656;-76
2022/09/02 02:18:57;;;;;;;1.27;1.17;;;;;;;14.71;56.10;99062.63;5110400;28;43410;-75
2022/09/02 02:21:25;;;;;;;1.23;1.10;;;;;;;14.69;56.28;99051.22;5093837;28;40356;-75
2022/09/02 02:23:53;;;;;;;2.10;1.10;;;;;;;14.68;56.14;99055.69;5110702;28;42683;-75
2022/09/02 02:26:21;;;;;;;1.00;1.00;;;;;;;14.67;56.51;99055.81;5110862;28;43691;-75
2022/09/02 02:28:49;;;;;;;1.53;1.40;;;;;;;14.66;56.55;99054.09;5093548;28;41129;-75
2022/09/02 02:31:19;;;;;;;1.00;1.00;;;;;;;14.64;56.37;99051.56;5093888;28;39018;-75
2022/09/02 02:33:47;;;;;;;1.23;1.13;;;;;;;14.62;56.60;99055.28;5093451;28;42147;-75
2022/09/02 02:36:15;;;;;;;1.17;1.03;;;;;;;14.62;56.74;99055.28;5093633;28;43556;-75
2022/09/02 02:38:45;;;;;;;1.63;1.27;;;;;;;14.59;56.53;99052.84;5110134;28;43009;-75
2022/09/02 02:41:14;;;;;;;1.17;1.00;;;;;;;14.59;56.84;99053.69;5093681;28;40641;-74
2022/09/02 02:43:43;;;;;;;1.50;1.23;;;;;;;14.58;57.15;99048.50;5093436;28;40576;-75
2022/09/02 02:46:12;;;;;;;1.20;1.10;;;;;;;14.57;57.34;99045.00;5093757;28;42930;-75
2022/09/02 02:48:42;;;;;;;4.73;2.23;;;;;;;14.51;57.57;99037.44;5110487;28;42946;-75
2022/09/02 02:51:11;;;;;;;1.20;1.10;;;;;;;14.55;58.06;99046.06;5107716;28;39956;-75
2022/09/02 02:53:39;;;;;;;1.80;1.47;;;;;;;14.55;57.94;99038.94;5110485;28;43027;-75
2022/09/02 02:56:08;;;;;;;2.20;1.30;;;;;;;14.54;57.54;99039.88;5110386;28;43747;-75
2022/09/02 02:58:36;;;;;;;1.67;1.40;;;;;;;14.52;57.44;99046.28;5111425;28;42420;-75
2022/09/02 03:01:04;;;;;;;1.20;1.10;;;;;;;14.50;57.60;99042.91;5093527;28;39896;-75
2022/09/02 03:03:32;;;;;;;2.00;1.40;;;;;;;14.48;57.80;99051.00;5093268;28;40643;-75
2022/09/02 03:06:03;;;;;;;0.93;0.93;;;;;;;14.46;58.25;99036.97;5110318;28;43056;-75
2022/09/02 03:08:34;;;;;;;1.30;1.20;;;;;;;14.45;57.64;99032.59;5093197;28;41149;-75
2022/09/02 03:11:04;;;;;;;1.77;1.40;;;;;;;14.43;58.00;99042.53;5093596;28;38327;-75
2022/09/02 03:13:33;;;;;;;1.80;1.10;;;;;;;14.41;57.65;99036.44;5092950;28;40958;-75
2022/09/02 03:16:05;;;;;;;1.60;1.17;;;;;;;14.38;57.86;99039.31;5110224;28;43057;-75
2022/09/02 03:18:35;;;;;;;1.73;1.20;;;;;;;14.31;58.00;99027.44;5092886;28;41328;-75
2022/09/02 03:21:07;;;;;;;1.07;1.00;;;;;;;14.33;57.54;99031.69;5094312;28;40190;-75
2022/09/02 03:23:35;;;;;;;1.23;1.13;;;;;;;14.30;58.06;99031.06;5096509;28;41099;-75
2022/09/02 03:26:08;;;;;;;1.40;1.30;;;;;;;14.28;58.33;99030.31;5096664;28;41751;-75
2022/09/02 03:28:38;;;;;;;2.03;1.30;;;;;;;14.25;58.40;99027.88;5112235;28;42201;-75
2022/09/02 03:31:07;;;;;;;2.03;1.50;;;;;;;14.24;58.59;99026.16;5096453;28;42737;-75
2022/09/02 03:33:35;;;;;;;1.30;1.20;;;;;;;14.22;58.48;99028.09;5113557;28;41899;-75
2022/09/02 03:36:06;;;;;;;2.03;1.40;;;;;;;14.20;58.51;99019.38;5096334;28;43092;-75
2022/09/02 03:38:36;;;;;;;1.50;1.40;;;;;;;14.17;58.41;99025.78;5095636;28;41450;-75
2022/09/02 03:41:04;;;;;;;1.63;1.10;;;;;;;14.14;58.11;99019.84;5113515;28;40018;-75
2022/09/02 03:43:32;;;;;;;1.73;1.20;;;;;;;14.11;58.44;99014.72;5113236;28;41464;-75
2022/09/02 03:46:00;;;;;;;1.20;1.10;;;;;;;14.07;58.01;99013.28;5113356;28;41887;-75
2022/09/02 03:48:29;;;;;;;1.60;1.33;;;;;;;14.00;58.42;99013.72;5113228;28;43114;-75
2022/09/02 03:50:57;;;;;;;1.30;1.00;;;;;;;14.00;58.42;99018.19;5096360;28;38835;-75
2022/09/02 03:53:26;;;;;;;1.33;1.23;;;;;;;13.87;58.46;99001.41;5112864;28;41744;-75
2022/09/02 03:55:58;;;;;;;1.37;1.10;;;;;;;13.94;58.26;99018.66;5110098;28;43825;-75
2022/09/02 03:58:28;;;;;;;1.37;1.27;;;;;;;13.92;58.24;99016.09;5112870;28;42773;-75
2022/09/02 04:00:58;;;;;;;1.40;1.23;;;;;;;13.89;58.23;99016.31;5095908;28;38852;-75
2022/09/02 04:03:26;;;;;;;2.20;1.20;;;;;;;13.87;58.58;99010.25;5095872;28;40636;-75
2022/09/02 04:05:54;;;;;;;1.10;1.00;;;;;;;13.86;58.44;99016.53;5113179;28;43743;-75
2022/09/02 04:08:25;;;;;;;1.43;1.10;;;;;;;13.84;58.33;99025.63;5112868;28;41316;-76
2022/09/02 04:10:56;;;;;;;1.30;1.20;;;;;;;13.81;58.73;99020.50;5096094;28;39862;-75
2022/09/02 04:13:24;;;;;;;0.90;0.90;;;;;;;13.77;58.23;99022.53;5095647;28;40725;-75
2022/09/02 04:15:52;;;;;;;1.50;1.07;;;;;;;13.74;58.41;99016.59;5095776;28;43340;-75
2022/09/02 04:18:22;;;;;;;1.70;1.00;;;;;;;13.70;58.42;99026.63;5095558;28;42105;-75
2022/09/02 04:20:52;;;;;;;1.00;1.00;;;;;;;13.64;58.41;99027.06;5095579;28;40939;-76
2022/09/02 04:23:21;;;;;;;1.30;1.17;;;;;;;13.62;58.95;99023.66;5095656;28;41792;-75
2022/09/02 04:25:49;;;;;;;1.30;1.20;;;;;;;13.58;59.62;99020.38;5112439;28;43218;-75
2022/09/02 04:28:19;;;;;;;1.47;1.20;;;;;;;13.56;59.28;99016.13;5112418;28;42787;-75
2022/09/02 04:30:49;;;;;;;1.90;1.60;;;;;;;13.54;59.26;99020.69;5110042;28;40053;-75
2022/09/02 04:33:17;;;;;;;1.60;1.37;;;;;;;13.51;59.38;99020.91;5111746;28;42441;-75
2022/09/02 04:35:48;;;;;;;1.43;1.10;;;;;;;13.50;59.93;99022.72;5112532;28;42794;-75
2022/09/02 04:38:17;;;;;;;1.30;1.20;;;;;;;13.38;59.79;98996.16;5095123;28;42359;-75
2022/09/02 04:40:47;;;;;;;1.50;1.40;;;;;;;13.48;59.67;99015.81;5112389;28;40839;-75
2022/09/02 04:43:19;;;;;;;1.30;1.20;;;;;;;13.46;59.51;99023.06;5110204;28;41751;-75
2022/09/02 04:45:48;;;;;;;1.40;1.30;;;;;;;13.46;59.39;99017.75;5095529;28;43431;-76
2022/09/02 04:48:19;;;;;;;1.57;1.20;;;;;;;13.45;59.64;99022.22;5112320;28;42869;-75
2022/09/02 04:50:49;;;;;;;1.57;1.20;;;;;;;13.44;59.36;99028.50;5095705;28;40294;-75
2022/09/02 04:53:18;;;;;;;1.30;1.20;;;;;;;13.44;59.52;99035.63;5094826;28;41984;-75
2022/09/02 04:55:46;;;;;;;2.00;1.30;;;;;;;13.43;60.02;99028.59;5112045;28;41642;-75
2022/09/02 04:58:15;;;;;;;1.67;1.53;;;;;;;13.45;60.74;99024.03;5095028;28;41122;-75
2022/09/02 05:00:45;;;;;;;2.70;1.60;;;;;;;13.47;60.96;99030.94;5112341;28;39951;-75
2022/09/02 05:03:16;;;;;;;1.87;1.50;;;;;;;13.51;61.13;99026.22;5094897;28;40781;-75
2022/09/02 05:05:47;;;;;;;1.93;1.70;;;;;;;13.55;61.11;99028.56;5094872;28;44041;-76
2022/09/02 05:08:16;;;;;;;1.93;1.73;;;;;;;13.58;60.61;99025.69;5111646;28;42197;-74
2022/09/02 05:10:49;;;;;;;1.83;1.50;;;;;;;13.61;60.71;99035.25;5112295;28;40418;-75
2022/09/02 05:13:18;;;;;;;2.47;1.50;;;;;;;13.68;60.54;99033.00;5110134;28;41939;-75
2022/09/02 05:15:47;;;;;;;1.60;1.50;;;;;;;13.71;60.72;99025.66;5111908;28;42765;-75
2022/09/02 05:18:16;;;;;;;1.30;1.20;;;;;;;13.74;60.68;99038.72;5094552;28;41180;-75
2022/09/02 05:20:45;;;;;;;4.70;1.70;;;;;;;13.80;60.65;99029.47;5111694;28;39937;-75
2022/09/02 05:23:14;;;;;;;1.63;1.53;;;;;;;13.80;60.20;99019.66;5094356;28;40538;-76
2022/09/02 05:25:44;;;;;;;1.87;1.33;;;;;;;13.94;59.93;99038.16;5111576;28;43176;-75
2022/09/02 05:28:12;;;;;;;1.40;1.30;;;;;;;14.05;59.98;99031.19;5111478;28;43183;-75
2022/09/02 05:30:42;;;;;;;2.30;1.70;;;;;;;14.17;59.91;99032.94;5111954;28;39982;-75
2022/09/02 05:33:12;;;;;;;2.67;1.80;;;;;;;14.26;60.04;99026.91;5111664;28;41567;-75
2022/09/02 05:35:42;;;;;;;1.10;1.10;;;;;;;14.51;59.52;99037.44;5111647;28;42697;-76
2022/09/02 05:38:11;;;;;;;1.17;1.17;;;;;;;14.73;59.29;99045.50;5094302;28;41756;-75
2022/09/02 05:40:39;;;;;;;1.30;1.20;;;;;;;14.77;58.71;99021.28;5111363;28;40949;-75
2022/09/02 05:43:09;;;;;;;1.40;1.20;;;;;;;15.06;58.62;99058.09;5094180;28;40827;-75
2022/09/02 05:45:39;;;;;;;1.27;1.17;;;;;;;15.19;58.40;99052.63;5094299;28;41474;-75
2022/09/02 05:49:04;;;;;;;1.13;1.03;;;;;;;15.32;58.15;99053.38;5094291;28;42409;-75
2022/09/02 05:50:59;;;;;;;1.30;1.20;;;;;;;15.49;57.88;99046.69;5108610;28;40008;-75
2022/09/02 05:53:29;;;;;;;1.87;1.30;;;;;;;15.59;57.66;99050.34;5094237;28;40737;-76
2022/09/02 05:55:57;;;;;;;1.67;1.57;;;;;;;15.68;57.94;99043.44;5094294;28;41811;-76
2022/09/02 05:58:26;;;;;;;1.50;1.40;;;;;;;15.80;57.76;99051.31;5110830;28;42066;-76
2022/09/02 06:00:55;;;;;;;1.40;1.30;;;;;;;15.93;57.17;99051.16;5111306;28;40768;-75
2022/09/02 06:03:22;;;;;;;1.57;1.47;;;;;;;16.04;57.34;99035.09;5085409;28;41521;-82
2022/09/02 06:05:55;;;;;;;1.80;1.40;;;;;;;16.41;56.65;99058.78;5111374;28;42669;-80
2022/09/02 06:08:25;;;;;;;1.47;1.30;;;;;;;16.76;55.80;99061.22;5093967;28;41386;-81
2022/09/02 06:10:53;;;;;;;1.53;1.30;;;;;;;17.06;55.47;99066.59;5085422;28;38853;-80
2022/09/02 06:13:23;;;;;;;2.00;1.57;;;;;;;17.28;54.76;99070.97;5079683;28;43052;-80
2022/09/02 06:15:54;;;;;;;1.77;1.67;;;;;;;17.45;54.70;99075.69;5094744;28;41934;-82
2022/09/02 06:18:25;;;;;;;1.57;1.47;;;;;;;17.68;54.29;99073.72;5089590;28;43480;-83
2022/09/02 06:20:55;;;;;;;1.80;1.50;;;;;;;17.83;54.03;99067.00;5111746;28;40965;-82
2022/09/02 06:23:25;;;;;;;2.00;1.80;;;;;;;17.95;53.91;99079.31;5110404;28;41927;-82
2022/09/02 06:25:53;;;;;;;1.40;1.30;;;;;;;17.89;53.95;99076.34;5111413;28;43014;-83
2022/09/02 06:28:21;;;;;;;1.97;1.43;;;;;;;17.89;53.82;99071.81;5093301;28;41307;-81
2022/09/02 06:30:50;;;;;;;2.30;1.87;;;;;;;17.84;53.70;99067.84;5094378;28;40102;-82
2022/09/02 06:33:22;;;;;;;2.17;1.90;;;;;;;17.88;53.99;99080.00;5093582;28;43186;-82
2022/09/02 06:35:50;;;;;;;3.60;1.70;;;;;;;17.91;54.05;99074.38;5094375;28;43013;-83
2022/09/02 06:38:20;;;;;;;2.43;1.37;;;;;;;17.98;53.73;99075.50;5092831;28;41138;-81
2022/09/02 06:40:53;;;;;;;4.47;1.70;;;;;;;18.08;53.87;99078.22;5108114;28;39839;-84
2022/09/02 06:43:28;;;;;;;1.83;1.20;;;;;;;18.18;53.71;99066.50;5093874;28;40454;-83
2022/09/02 06:46:17;;;;;;;3.07;1.50;;;;;;;18.30;52.96;99077.97;5093929;28;43560;-78
2022/09/02 06:48:47;;;;;;;2.90;1.00;;;;;;;18.35;53.21;99070.34;5093187;28;42419;-79
2022/09/02 06:51:19;;;;;;;1.23;1.13;;;;;;;18.54;53.17;99066.84;5094137;28;41076;-79
2022/09/02 06:53:49;;;;;;;2.10;1.83;;;;;;;18.75;52.78;99074.78;5093575;28;40409;-80
2022/09/02 06:56:19;;;;;;;1.40;1.30;;;;;;;18.91;52.55;99078.59;5112024;27;42627;-81
2022/09/02 06:58:47;;;;;;;1.30;1.10;;;;;;;19.01;52.00;99059.78;5113546;28;42175;-81
2022/09/02 07:01:19;;;;;;;1.37;1.27;;;;;;;19.24;51.76;99076.41;5114779;28;40040;-83
2022/09/02 07:06:36;;;;;;;1.93;1.30;;;;;;;19.48;50.90;99082.13;5096710;28;42474;-80
2022/09/02 07:09:06;;;;;;;1.20;1.10;;;;;;;19.61;50.78;99074.63;5096801;28;42765;-82
2022/09/02 07:11:37;;;;;;;1.30;1.20;;;;;;;19.98;50.60;99088.03;5097683;28;38869;-88
2022/09/02 07:14:06;;;;;;;1.30;1.20;;;;;;;20.12;50.62;99062.47;5096283;28;41275;-82
2022/09/02 07:16:42;;;;;;;2.10;1.40;;;;;;;20.40;48.83;99093.72;5096696;28;42407;-80
2022/09/02 07:19:11;;;;;;;2.03;1.60;;;;;;;20.58;48.56;99091.06;5096387;28;40729;-82
2022/09/02 07:21:39;;;;;;;2.50;1.27;;;;;;;20.70;48.75;99086.28;5096785;28;39511;-81
2022/09/02 07:24:08;;;;;;;1.97;1.33;;;;;;;20.79;48.32;99070.03;5096199;28;40552;-81
2022/09/02 07:26:38;;;;;;;2.37;1.10;;;;;;;21.01;48.38;99082.19;5096733;28;41371;-81
2022/09/02 07:29:08;;;;;;;1.17;0.90;;;;;;;21.19;47.53;99095.63;5096438;28;42451;-82
2022/09/02 07:31:36;;;;;;;0.97;0.93;;;;;;;21.39;47.99;99096.25;5114120;28;40916;-79
2022/09/02 07:34:06;;;;;;;1.07;1.03;;;;;;;21.27;45.38;99065.19;5113313;28;42568;-82
2022/09/02 07:36:35;;;;;;;1.50;1.13;;;;;;;21.60;45.43;99091.38;5113370;28;43450;-82
2022/09/02 07:39:06;;;;;;;1.13;1.03;;;;;;;21.87;44.74;99106.50;5095545;28;42605;-84
2022/09/02 07:41:34;;;;;;;1.00;0.90;;;;;;;22.24;45.68;99092.69;5113862;28;40445;-82
2022/09/02 07:44:05;;;;;;;0.77;0.77;;;;;;;22.76;43.93;99103.25;5095840;28;41733;-87
2022/09/02 07:46:34;;;;;;;0.90;0.90;;;;;;;23.31;41.85;99111.53;5110860;28;42751;-81
2022/09/02 07:49:06;;;;;;;1.20;1.10;;;;;;;23.54;41.10;99119.81;5079645;28;41649;-80
2022/09/02 07:51:36;;;;;;;1.30;1.10;;;;;;;23.71;40.11;99116.06;5110735;28;40812;-82
2022/09/02 07:54:06;;;;;;;1.20;1.03;;;;;;;24.09;40.73;99119.00;5095759;28;40645;-78
2022/09/02 07:56:34;;;;;;;2.97;1.10;;;;;;;24.92;38.84;99127.31;5113181;28;43682;-80
2022/09/02 07:59:04;;;;;;;1.60;1.00;;;;;;;25.78;37.57;99129.66;5112670;28;43296;-78
2022/09/02 08:01:33;;;;;;;5.20;1.30;;;;;;;26.54;36.83;99141.13;5110670;28;40344;-79
2022/09/02 08:04:02;;;;;;;2.17;0.97;;;;;;;26.94;34.72;99137.03;5107412;28;40509;-79
2022/09/02 08:06:33;;;;;;;8.07;2.40;;;;;;;26.79;35.57;99137.03;5086492;27;41549;-88
2022/09/02 08:09:01;;;;;;;2.47;1.30;;;;;;;27.49;33.44;99152.56;5109733;28;42122;-86
2022/09/02 08:11:28;;;;;;;4.80;1.10;;;;;;;27.95;32.70;99161.09;5104188;28;39588;-80
2022/09/02 08:13:56;;;;;;;3.13;1.47;;;;;;;28.71;32.55;99158.34;5109688;28;43759;-84
2022/09/02 08:16:26;;;;;;;3.13;1.03;;;;;;;29.30;31.66;99158.53;5113259;28;43625;-75
2022/09/02 08:18:54;;;;;;;1.90;0.90;;;;;;;29.68;30.55;99166.94;5114084;28;42333;-90
2022/09/02 08:21:21;;;;;;;1.00;0.90;;;;;;;29.59;29.90;99158.13;5113509;28;40221;-86
2022/09/02 08:23:50;;;;;;;1.20;1.10;;;;;;;29.95;30.78;99162.28;5113310;28;41652;-87
2022/09/02 08:26:18;;;;;;;1.80;1.30;;;;;;;30.50;28.85;99176.47;5112847;28;41829;-77
2022/09/02 08:28:45;;;;;;;1.30;1.20;;;;;;;31.41;27.84;99174.28;5111622;28;42508;-81
2022/09/02 08:31:13;;;;;;;3.00;1.60;;;;;;;32.62;26.90;99176.53;5113975;28;40872;-78
2022/09/02 08:33:43;;;;;;;1.23;1.17;;;;;;;33.81;24.96;99184.72;5112219;28;42426;-84
2022/09/02 08:36:13;;;;;;;2.00;1.20;;;;;;;34.90;23.92;99173.94;5113303;28;43014;-84
2022/09/02 08:38:41;;;;;;;3.30;1.50;;;;;;;35.82;22.61;99193.84;5111994;28;41112;-86
2022/09/02 08:41:20;;;;;;;1.00;1.00;;;;;;;36.30;22.50;99173.06;5113501;28;41100;-82
2022/09/02 08:43:49;;;;;;;4.23;1.10;;;;;;;36.24;22.21;99182.34;5095550;28;41375;-83
2022/09/02 08:46:18;;;;;;;1.77;1.00;;;;;;;35.84;22.45;99180.66;5079443;28;41850;-82
2022/09/02 08:48:52;;;;;;;1.02;0.93;;;;;;;35.47;23.06;99169.25;5095172;28;41552;-82
2022/09/02 08:51:25;;;;;;;1.80;1.00;;;;;;;35.29;22.62;99175.81;5111046;28;39612;-81
2022/09/02 08:53:59;;;;;;;1.15;1.05;;;;;;;35.44;22.21;99174.44;5112155;28;40787;-86
2022/09/02 08:56:27;;;;;;;2.28;1.20;;;;;;;36.28;21.26;99175.22;5109685;28;43848;-82
2022/09/02 08:58:56;;;;;;;2.35;1.10;;;;;;;37.00;21.23;99172.28;5112304;28;42054;-80
2022/09/02 09:01:31;;;;;;;1.20;1.10;;;;;;;37.52;20.68;99153.19;5112651;28;40012;-81
2022/09/02 09:04:11;;;;;;;3.00;1.20;;;;;;;36.97;20.51;99161.75;5111760;28;40797;-82
2022/09/02 09:06:47;;;;;;;1.02;1.00;;;;;;;36.86;20.89;99165.50;5104536;28;43828;-81
2022/09/02 09:09:25;;;;;;;3.55;1.25;;;;;;;36.81;20.19;99176.50;5084906;28;43124;-82
2022/09/02 09:12:02;;;;;;;1.30;1.20;;;;;;;36.34;21.25;99150.25;5089731;28;38416;-87
2022/09/02 09:14:34;;;;;;;2.92;1.10;;;;;;;36.17;21.35;99154.09;5092756;28;41223;-84
2022/09/02 09:17:14;;;;;;;3.67;1.10;;;;;;;35.94;21.46;99147.72;5106123;28;42693;-86
2022/09/02 09:19:49;;;;;;;2.00;1.13;;;;;;;35.35;21.96;99145.63;5094220;28;41623;-88
2022/09/02 09:22:20;;;;;;;1.07;0.83;;;;;;;34.82;22.98;99122.91;5108637;28;40792;-83
2022/09/02 09:24:50;;;;;;;1.13;0.90;;;;;;;34.26;22.45;99140.13;5091936;28;41487;-82
2022/09/02 09:27:19;;;;;;;1.17;1.07;;;;;;;33.71;22.85;99135.00;5092556;28;42797;-80
2022/09/02 09:29:47;;;;;;;2.03;1.10;;;;;;;33.38;23.36;99116.31;5091144;28;42482;-81
2022/09/02 09:32:24;;;;;;;1.10;0.93;;;;;;;33.37;22.63;99108.34;5091708;28;39689;-77
2022/09/02 09:35:01;;;;;;;1.63;0.90;;;;;;;33.33;22.82;99123.63;5075849;28;41179;-89
2022/09/02 09:37:35;;;;;;;0.80;0.80;;;;;;;33.10;23.04;99096.94;5076888;28;42011;-86
2022/09/02 09:40:22;;;;;;;0.97;0.97;;;;;;;32.96;23.29;99111.94;5095207;28;41072;-83
2022/09/02 09:42:55;;;;;;;1.17;0.90;;;;;;;31.94;23.76;99108.97;5094858;28;39332;-83
2022/09/02 09:45:31;;;;;;;2.07;1.00;;;;;;;31.55;24.57;99099.22;5109511;28;41788;-81
2022/09/02 09:48:12;;;;;;;1.47;1.27;;;;;;;31.27;25.16;99090.63;5111190;28;44763;-84
2022/09/02 09:50:42;;;;;;;2.00;1.20;;;;;;;31.02;25.37;99077.75;5109115;28;42697;-85
2022/09/02 09:53:19;;;;;;;2.00;0.97;;;;;;;30.83;25.60;99072.41;5094651;28;40215;-81
2022/09/02 09:55:53;;;;;;;1.40;1.13;;;;;;;30.35;25.83;99051.84;5109458;28;41776;-87
2022/09/02 09:58:24;;;;;;;0.90;0.90;;;;;;;30.39;26.26;99070.56;5096628;28;41719;-89
2022/09/02 10:00:59;;;;;;;1.03;1.00;;;;;;;30.23;24.60;99067.25;5110249;28;43240;-87
2022/09/02 10:03:28;;;;;;;1.20;1.00;;;;;;;30.21;24.85;99087.66;5094002;28;39185;-83
2022/09/02 10:06:16;;;;;;;1.17;1.00;;;;;;;29.94;24.35;99075.94;5111910;28;41082;-83
2022/09/02 10:08:52;;;;;;;1.33;0.90;;;;;;;29.49;25.26;99059.47;5089315;28;41866;-80
2022/09/02 10:11:25;;;;;;;1.30;0.93;;;;;;;29.53;25.41;99063.44;5104029;28;42046;-77
2022/09/02 10:14:00;;;;;;;1.33;0.90;;;;;;;29.64;24.97;99061.97;5104785;28;40200;-76
2022/09/02 10:16:41;;;;;;;0.73;0.63;;;;;;;29.67;23.76;99080.66;5088456;28;41599;-79
2022/09/02 10:19:17;;;;;;;2.70;1.10;;;;;;;29.56;23.06;99087.56;5104706;28;42832;-76
2022/09/02 10:22:04;;;;;;;1.00;0.90;;;;;;;30.06;23.58;99066.06;5109921;28;41204;-77
2022/09/02 10:24:50;;;;;;;1.47;0.83;;;;;;;30.75;21.26;99089.09;5089990;28;41473;-79
2022/09/02 10:27:29;;;;;;;1.27;0.90;;;;;;;31.16;21.94;99083.97;5092205;28;40838;-79
2022/09/02 10:30:03;;;;;;;0.87;0.83;;;;;;;31.57;21.33;99091.59;5091132;28;43404;-75
2022/09/02 10:32:50;;;;;;;1.13;1.00;;;;;;;31.96;21.35;99086.81;5105112;28;42331;-77
2022/09/02 10:35:25;;;;;;;1.33;1.10;;;;;;;32.46;22.04;99069.13;5110162;28;40898;-76
2022/09/02 10:38:07;;;;;;;0.80;0.80;;;;;;;32.96;21.55;99062.53;5103807;28;42254;-78
2022/09/02 10:40:44;;;;;;;1.47;0.90;;;;;;;33.11;20.87;99069.25;5106607;28;42793;-80
2022/09/02 10:43:27;;;;;;;0.80;0.60;;;;;;;33.68;20.64;99068.69;5102315;28;42344;-77
2022/09/02 10:45:59;;;;;;;1.80;0.90;;;;;;;34.83;20.64;99068.69;5100314;28;39972;-78
2022/09/02 10:48:43;;;;;;;0.90;0.80;;;;;;;35.43;19.18;99079.09;5090100;28;41834;-78
2022/09/02 10:51:20;;;;;;;1.70;0.87;;;;;;;36.12;17.95;99090.56;5105415;28;43819;-77
2022/09/02 10:54:02;;;;;;;1.03;0.90;;;;;;;36.80;17.50;99089.25;5109115;28;41476;-79
2022/09/02 10:56:39;;;;;;;1.00;0.90;;;;;;;37.27;17.69;99087.50;5109984;28;40995;-80
2022/09/02 10:59:10;;;;;;;0.90;0.90;;;;;;;37.80;16.72;99085.72;5103390;28;41775;-79
2022/09/02 11:01:45;;;;;;;1.07;0.97;;;;;;;36.82;17.44;99060.28;5106080;28;42595;-76
2022/09/02 11:04:19;;;;;;;1.10;1.00;;;;;;;35.88;17.80;99090.81;5106345;28;41805;-80
2022/09/02 11:06:50;;;;;;;1.10;0.87;;;;;;;35.69;18.66;99067.38;5106092;28;40981;-79
2022/09/02 11:09:34;;;;;;;1.87;1.00;;;;;;;35.74;18.63;99055.56;5107857;28;40684;-86
2022/09/02 11:12:08;;;;;;;0.90;0.90;;;;;;;36.05;18.46;99060.44;5092548;28;43547;-81
2022/09/02 11:14:44;;;;;;;0.60;0.60;;;;;;;36.78;17.65;99058.31;5091908;28;43169;-86
2022/09/02 11:17:22;;;;;;;1.10;1.00;;;;;;;37.49;17.10;99054.22;5092055;28;40048;-82
2022/09/02 11:19:56;;;;;;;0.80;0.80;;;;;;;37.91;16.84;99062.53;5092105;28;40646;-87
2022/09/02 11:22:32;;;;;;;0.80;0.80;;;;;;;38.20;16.69;99018.72;5087555;28;41795;-81
2022/09/02 11:25:08;;;;;;;0.90;0.75;;;;;;;39.38;16.22;99070.44;5073158;28;41074;-82
2022/09/02 11:27:42;;;;;;;0.85;0.70;;;;;;;40.06;15.42;99062.59;5089585;28;40981;-82
2022/09/02 11:30:13;;;;;;;1.20;0.70;;;;;;;40.14;15.17;99062.81;5093425;28;40724;-83
2022/09/02 11:32:45;;;;;;;0.68;0.68;;;;;;;40.13;15.77;99046.44;5109196;28;42005;-83
2022/09/02 11:35:18;;;;;;;0.95;0.90;;;;;;;40.22;14.90;99059.44;5107323;28;41755;-82
2022/09/02 11:37:49;;;;;;;1.02;0.80;;;;;;;41.45;14.54;99048.38;5103165;28;39977;-82
2022/09/02 11:40:26;;;;;;;0.70;0.70;;;;;;;42.58;13.76;99063.53;5107855;28;43165;-83
2022/09/02 11:43:15;;;;;;;1.08;0.80;;;;;;;42.81;13.02;99037.56;5109225;28;42497;-85
2022/09/02 11:46:32;;;;;;;0.68;0.60;;;;;;;42.99;13.38;99053.47;5106675;28;42008;-82
2022/09/02 11:49:20;;;;;;;1.33;0.70;;;;;;;43.49;13.10;99039.78;5112344;28;40922;-82
2022/09/02 11:52:00;;;;;;;0.70;0.70;;;;;;;43.40;12.72;99015.72;5109959;28;42671;-82
2022/09/02 11:54:35;;;;;;;1.20;0.70;;;;;;;43.64;13.12;99024.78;5113406;28;42238;-82
2022/09/02 11:57:06;;;;;;;2.15;0.73;;;;;;;44.33;12.65;99022.78;5110383;28;42594;-81